createdAt,value
2022-10-26T00:01:11.477Z,10.17
2022-10-26T00:03:39.448Z,10.24
2022-10-26T00:06:26.854Z,10.52
2022-10-26T00:08:53.397Z,10.19
2022-10-26T00:11:19.970Z,10.30
2022-10-26T00:13:46.742Z,10.36
2022-10-26T00:16:26.815Z,10.50
2022-10-26T00:18:53.431Z,10.26
2022-10-26T00:21:19.863Z,10.23
2022-10-26T00:23:46.363Z,10.52
2022-10-26T00:26:12.990Z,10.51
2022-10-26T00:28:39.527Z,10.45
2022-10-26T00:31:08.809Z,10.49
2022-10-26T00:33:36.005Z,10.51
2022-10-26T00:36:02.694Z,10.50
2022-10-26T00:38:29.211Z,10.22
2022-10-26T00:40:55.833Z,10.24
2022-10-26T00:43:22.168Z,10.46
2022-10-26T00:45:55.876Z,10.49
2022-10-26T00:48:46.587Z,10.57
2022-10-26T00:51:41.606Z,10.78
2022-10-26T00:54:13.377Z,10.54
2022-10-26T00:56:40.665Z,10.55
2022-10-26T00:59:11.221Z,10.68
2022-10-26T01:01:41.073Z,10.52
2022-10-26T01:04:07.611Z,10.60
2022-10-26T01:06:36.072Z,10.51
2022-10-26T01:09:10.175Z,10.43
2022-10-26T01:11:36.569Z,10.52
2022-10-26T01:14:06.017Z,10.27
2022-10-26T01:16:54.872Z,10.37
2022-10-26T01:19:47.701Z,10.31
2022-10-26T01:23:03.705Z,10.29
2022-10-26T01:25:45.976Z,10.14
2022-10-26T01:28:41.719Z,10.56
2022-10-26T01:31:15.771Z,10.23
2022-10-26T01:33:46.942Z,10.30
2022-10-26T01:36:23.005Z,10.29
2022-10-26T01:38:58.651Z,10.33
2022-10-26T01:41:41.354Z,10.52
2022-10-26T01:44:25.004Z,10.46
2022-10-26T01:46:54.567Z,10.24
2022-10-26T01:49:25.849Z,10.30
2022-10-26T01:51:52.249Z,10.22
2022-10-26T01:54:18.705Z,10.10
2022-10-26T01:56:53.627Z,10.15
2022-10-26T01:59:43.111Z,10.26
2022-10-26T02:02:37.551Z,10.23
2022-10-26T02:05:31.361Z,10.19
2022-10-26T02:08:26.193Z,10.11
2022-10-26T02:11:26.375Z,10.19
2022-10-26T02:14:01.257Z,10.14
2022-10-26T02:16:56.289Z,10.26
2022-10-26T02:19:29.460Z,10.26
2022-10-26T02:22:33.552Z,10.31
2022-10-26T02:25:05.367Z,10.38
2022-10-26T02:27:37.577Z,10.20
2022-10-26T02:30:05.459Z,10.01
2022-10-26T02:32:36.209Z,10.12
2022-10-26T02:35:05.201Z,9.90
2022-10-26T02:37:35.285Z,9.99
2022-10-26T02:40:09.098Z,9.68
2022-10-26T02:42:36.809Z,9.64
2022-10-26T02:45:10.020Z,9.83
2022-10-26T02:47:36.571Z,9.83
2022-10-26T02:50:03.727Z,9.49
2022-10-26T02:52:47.848Z,9.15
2022-10-26T02:55:29.489Z,8.95
2022-10-26T02:58:00.260Z,9.02
2022-10-26T03:00:26.813Z,9.11
2022-10-26T03:02:57.322Z,9.02
2022-10-26T03:05:29.837Z,8.84
2022-10-26T03:07:56.882Z,8.74
2022-10-26T03:10:27.142Z,9.29
2022-10-26T03:12:53.600Z,9.21
2022-10-26T03:15:21.033Z,8.88
2022-10-26T03:17:47.836Z,8.79
2022-10-26T03:20:14.552Z,8.82
2022-10-26T03:22:41.057Z,8.91
2022-10-26T03:27:39.615Z,9.09
2022-10-26T03:30:06.593Z,9.23
2022-10-26T03:32:33.139Z,9.31
2022-10-26T03:34:59.796Z,9.36
2022-10-26T03:37:26.208Z,9.53
2022-10-26T03:39:52.593Z,9.56
2022-10-26T03:42:18.981Z,9.56
2022-10-26T03:44:47.119Z,9.71
2022-10-26T03:47:13.616Z,9.83
2022-10-26T03:49:40.061Z,9.77
2022-10-26T03:52:06.454Z,9.93
2022-10-26T03:54:32.865Z,10.03
2022-10-26T03:56:59.279Z,10.49
2022-10-26T03:59:25.661Z,11.43
2022-10-26T04:01:55.354Z,11.87
2022-10-26T04:04:24.193Z,12.18
2022-10-26T04:06:50.614Z,12.55
2022-10-26T04:09:17.029Z,12.63
2022-10-26T04:11:43.429Z,12.60
2022-10-26T04:14:10.858Z,12.37
2022-10-26T04:16:37.579Z,12.31
2022-10-26T04:19:04.310Z,12.45
2022-10-26T04:21:32.882Z,12.30
2022-10-26T04:23:59.435Z,12.23
2022-10-26T04:26:25.870Z,12.15
2022-10-26T04:28:52.290Z,12.01
2022-10-26T04:31:18.805Z,11.38
2022-10-26T04:33:52.552Z,11.40
2022-10-26T04:36:18.993Z,11.58
2022-10-26T04:38:45.463Z,11.48
2022-10-26T04:41:11.895Z,11.31
2022-10-26T04:43:39.300Z,11.33
2022-10-26T04:46:05.985Z,11.43
2022-10-26T04:48:32.435Z,11.44
2022-10-26T04:51:00.107Z,11.29
2022-10-26T04:53:27.672Z,11.10
2022-10-26T04:55:58.410Z,11.09
2022-10-26T04:58:24.924Z,11.08
2022-10-26T05:00:51.572Z,11.40
2022-10-26T05:03:17.960Z,11.50
2022-10-26T05:05:44.350Z,11.56
2022-10-26T05:08:15.516Z,11.73
2022-10-26T05:10:42.220Z,11.83
2022-10-26T05:13:10.471Z,11.78
2022-10-26T05:15:36.863Z,11.63
2022-10-26T05:18:05.644Z,11.87
2022-10-26T05:20:34.358Z,11.98
2022-10-26T05:23:02.861Z,12.09
2022-10-26T05:25:31.751Z,12.13
2022-10-26T05:27:59.666Z,12.07
2022-10-26T05:30:26.274Z,12.03
2022-10-26T05:33:02.142Z,12.17
2022-10-26T05:35:28.902Z,11.92
2022-10-26T05:37:55.701Z,11.64
2022-10-26T05:40:22.522Z,11.81
2022-10-26T05:42:50.843Z,11.73
2022-10-26T05:45:20.569Z,11.65
2022-10-26T05:47:47.301Z,11.50
2022-10-26T05:50:14.224Z,11.80
2022-10-26T05:52:44.583Z,11.56
2022-10-26T05:55:18.620Z,11.71
2022-10-26T05:57:45.313Z,11.49
2022-10-26T06:00:23.754Z,11.65
2022-10-26T06:03:37.851Z,11.71
2022-10-26T06:06:14.721Z,11.68
2022-10-26T06:08:42.933Z,11.88
2022-10-26T06:11:09.987Z,12.08
2022-10-26T06:13:36.704Z,12.23
2022-10-26T06:16:29.234Z,12.07
2022-10-26T06:19:10.870Z,12.28
2022-10-26T06:21:46.595Z,12.18
2022-10-26T06:24:41.950Z,12.33
2022-10-26T06:27:30.143Z,12.52
2022-10-26T06:30:12.157Z,12.38
2022-10-26T06:32:40.577Z,12.33
2022-10-26T06:35:22.959Z,12.61
2022-10-26T06:37:50.364Z,12.26
2022-10-26T06:40:18.671Z,12.37
2022-10-26T06:42:45.436Z,12.33
2022-10-26T06:47:54.187Z,12.35
2022-10-26T06:50:52.812Z,12.49
2022-10-26T06:53:26.425Z,12.31
2022-10-26T06:55:53.413Z,12.70
2022-10-26T06:58:22.464Z,12.86
2022-10-26T07:00:50.932Z,12.68
2022-10-26T07:03:17.695Z,12.80
2022-10-26T07:05:45.188Z,12.89
2022-10-26T07:08:12.173Z,13.21
2022-10-26T07:10:39.365Z,13.25
2022-10-26T07:13:06.826Z,13.18
2022-10-26T07:15:37.660Z,13.25
2022-10-26T07:18:05.773Z,13.42
2022-10-26T07:20:36.139Z,13.44
2022-10-26T07:23:02.781Z,13.54
2022-10-26T07:25:29.372Z,13.84
2022-10-26T07:27:59.770Z,14.08
2022-10-26T07:30:28.055Z,13.75
2022-10-26T07:33:08.201Z,14.11
2022-10-26T07:35:34.950Z,14.17
2022-10-26T07:38:02.121Z,14.02
2022-10-26T07:40:28.971Z,14.29
2022-10-26T07:43:00.180Z,14.18
2022-10-26T07:45:28.370Z,14.25
2022-10-26T07:47:54.989Z,14.05
2022-10-26T07:50:21.805Z,14.23
2022-10-26T07:52:48.571Z,14.44
2022-10-26T07:55:15.391Z,14.37
2022-10-26T07:57:41.831Z,14.41
2022-10-26T08:00:09.773Z,14.85
2022-10-26T08:02:37.134Z,14.54
2022-10-26T08:05:04.406Z,14.70
2022-10-26T08:07:30.850Z,14.81
2022-10-26T08:09:57.267Z,14.60
2022-10-26T08:12:23.654Z,14.23
2022-10-26T08:14:50.444Z,14.46
2022-10-26T08:17:17.040Z,14.28
2022-10-26T08:19:43.443Z,14.61
2022-10-26T08:22:10.108Z,14.56
2022-10-26T08:24:36.682Z,14.47
2022-10-26T08:27:03.100Z,14.61
2022-10-26T08:29:29.480Z,14.69
2022-10-26T08:31:56.976Z,14.53
2022-10-26T08:34:23.440Z,14.52
2022-10-26T08:36:50.484Z,14.42
2022-10-26T08:39:16.994Z,14.56
2022-10-26T08:41:46.062Z,14.62
2022-10-26T08:44:23.885Z,14.55
2022-10-26T08:46:55.236Z,14.61
2022-10-26T08:49:38.183Z,14.80
2022-10-26T08:52:06.307Z,14.74
2022-10-26T08:54:42.160Z,14.58
2022-10-26T08:57:19.182Z,14.58
2022-10-26T09:00:00.441Z,14.79
2022-10-26T09:02:27.201Z,14.72
2022-10-26T09:04:54.871Z,14.76
2022-10-26T09:07:42.174Z,14.74
2022-10-26T09:10:11.474Z,15.15
2022-10-26T09:12:43.168Z,14.97
2022-10-26T09:15:31.088Z,14.89
2022-10-26T09:18:08.074Z,14.75
2022-10-26T09:20:40.374Z,14.82
2022-10-26T09:23:29.844Z,14.88
2022-10-26T09:26:01.479Z,14.73
2022-10-26T09:28:35.249Z,14.71
2022-10-26T09:31:04.321Z,14.82
2022-10-26T09:33:36.966Z,14.97
2022-10-26T09:36:11.851Z,15.37
2022-10-26T09:38:47.734Z,15.52
2022-10-26T09:41:49.989Z,15.54
2022-10-26T09:44:31.019Z,15.81
2022-10-26T09:47:12.877Z,15.81
2022-10-26T09:50:14.699Z,15.97
2022-10-26T09:52:41.076Z,15.96
2022-10-26T09:55:11.489Z,16.17
2022-10-26T09:57:42.664Z,16.46
2022-10-26T10:00:16.456Z,16.02
2022-10-26T10:02:45.547Z,16.29
2022-10-26T10:08:25.429Z,16.51
2022-10-26T10:11:07.049Z,16.58
2022-10-26T10:13:36.796Z,16.65
2022-10-26T10:16:23.690Z,17.07
2022-10-26T10:18:59.119Z,16.70
2022-10-26T10:21:40.917Z,16.70
2022-10-26T10:24:32.860Z,16.60
2022-10-26T10:27:17.552Z,17.29
2022-10-26T10:29:52.685Z,17.55
2022-10-26T10:32:23.064Z,17.47
2022-10-26T10:34:51.336Z,17.99
2022-10-26T10:37:27.576Z,18.21
2022-10-26T10:40:08.425Z,18.32
2022-10-26T10:42:41.090Z,18.76
2022-10-26T10:45:20.304Z,19.06
2022-10-26T10:48:01.050Z,19.03
2022-10-26T10:50:29.147Z,19.33
2022-10-26T10:53:14.438Z,19.70
2022-10-26T10:55:46.894Z,19.55
2022-10-26T10:58:29.591Z,19.35
2022-10-26T11:00:57.500Z,19.11
2022-10-26T11:03:34.799Z,19.31
2022-10-26T11:06:31.463Z,19.58
2022-10-26T11:09:06.993Z,19.27
2022-10-26T11:11:45.765Z,19.21
2022-10-26T11:14:15.416Z,19.21
2022-10-26T11:16:50.221Z,19.29
2022-10-26T11:19:43.299Z,19.29
2022-10-26T11:22:22.385Z,19.58
2022-10-26T11:25:07.400Z,19.49
2022-10-26T11:27:47.377Z,19.19
2022-10-26T11:30:19.783Z,19.51
2022-10-26T11:32:59.435Z,19.51
2022-10-26T11:35:47.239Z,19.83
2022-10-26T11:38:45.342Z,19.84
2022-10-26T11:41:25.061Z,19.79
2022-10-26T11:44:05.763Z,19.32
2022-10-26T11:46:41.825Z,19.60
2022-10-26T11:49:14.206Z,19.95
2022-10-26T11:52:01.987Z,19.90
2022-10-26T11:54:36.041Z,19.74
2022-10-26T11:57:05.193Z,19.74
2022-10-26T11:59:37.252Z,19.46
2022-10-26T12:02:15.799Z,18.92
2022-10-26T12:04:45.896Z,18.71
2022-10-26T12:07:27.857Z,18.84
2022-10-26T12:09:56.087Z,18.39
2022-10-26T12:12:28.929Z,18.39
2022-10-26T12:15:30.926Z,18.09
2022-10-26T12:18:43.118Z,18.21
2022-10-26T12:21:11.571Z,18.21
2022-10-26T12:23:52.678Z,18.80
2022-10-26T12:26:28.326Z,18.41
2022-10-26T12:29:03.964Z,18.24
2022-10-26T12:31:36.488Z,18.43
2022-10-26T12:34:12.402Z,18.81
2022-10-26T12:37:07.879Z,18.61
2022-10-26T12:39:35.490Z,18.69
2022-10-26T12:42:04.649Z,18.30
2022-10-26T12:44:41.340Z,18.26
2022-10-26T12:47:10.747Z,18.29
2022-10-26T12:50:00.110Z,18.62
2022-10-26T12:52:31.395Z,18.80
2022-10-26T12:55:09.460Z,18.50
2022-10-26T12:58:07.607Z,18.49
2022-10-26T13:00:40.124Z,18.51
2022-10-26T13:03:34.728Z,18.65
2022-10-26T13:06:23.500Z,18.53
2022-10-26T13:09:00.109Z,18.43
2022-10-26T13:11:41.896Z,18.08
2022-10-26T13:14:27.211Z,18.09
2022-10-26T13:16:54.550Z,18.10
2022-10-26T13:19:30.940Z,18.09
2022-10-26T13:22:02.647Z,18.07
2022-10-26T13:24:38.968Z,18.45
2022-10-26T13:27:07.332Z,18.46
2022-10-26T13:30:14.469Z,18.76
2022-10-26T13:32:49.169Z,18.68
2022-10-26T13:35:17.600Z,18.76
2022-10-26T13:37:50.439Z,19.20
2022-10-26T13:40:20.463Z,19.35
2022-10-26T13:42:51.926Z,19.39
2022-10-26T13:45:22.854Z,19.57
2022-10-26T13:47:56.183Z,19.81
2022-10-26T13:50:27.652Z,19.53
2022-10-26T13:53:01.173Z,19.63
2022-10-26T13:55:52.875Z,19.47
2022-10-26T13:58:33.459Z,19.56
2022-10-26T14:01:21.527Z,19.88
2022-10-26T14:03:50.963Z,20.17
2022-10-26T14:06:37.349Z,19.96
2022-10-26T14:09:13.320Z,20.25
2022-10-26T14:11:47.088Z,20.22
2022-10-26T14:14:26.576Z,20.06
2022-10-26T14:16:54.079Z,19.84
2022-10-26T14:19:25.867Z,19.61
2022-10-26T14:21:55.220Z,19.81
2022-10-26T14:24:50.173Z,20.08
2022-10-26T14:27:31.651Z,20.20
2022-10-26T14:30:21.099Z,19.85
2022-10-26T14:32:45.521Z,20.10
2022-10-26T14:35:13.773Z,20.18
2022-10-26T14:37:49.030Z,19.88
2022-10-26T14:40:21.806Z,20.11
2022-10-26T14:42:51.090Z,20.19
2022-10-26T14:45:48.642Z,20.18
2022-10-26T14:48:22.845Z,20.18
2022-10-26T14:51:27.243Z,19.84
2022-10-26T14:53:57.425Z,19.93
2022-10-26T14:56:36.009Z,20.08
2022-10-26T14:59:33.233Z,19.72
2022-10-26T15:02:04.805Z,19.92
2022-10-26T15:04:37.703Z,20.08
2022-10-26T15:07:13.079Z,20.02
2022-10-26T15:09:44.195Z,19.58
2022-10-26T15:12:19.783Z,19.38
2022-10-26T15:14:46.760Z,19.05
2022-10-26T15:17:27.607Z,19.10
2022-10-26T15:19:55.357Z,19.24
2022-10-26T15:22:30.908Z,19.45
2022-10-26T15:25:01.748Z,19.19
2022-10-26T15:27:28.244Z,19.23
2022-10-26T15:30:19.128Z,19.29
2022-10-26T15:32:46.159Z,18.83
2022-10-26T15:35:15.657Z,18.88
2022-10-26T15:37:42.440Z,18.46
2022-10-26T15:40:09.220Z,18.40
2022-10-26T15:42:40.158Z,18.58
2022-10-26T15:45:30.128Z,18.06
2022-10-26T15:47:59.250Z,17.98
2022-10-26T15:50:27.937Z,17.67
2022-10-26T15:53:03.134Z,17.67
2022-10-26T15:55:30.895Z,17.19
2022-10-26T15:57:57.557Z,17.08
2022-10-26T16:00:23.964Z,16.63
2022-10-26T16:02:50.546Z,16.10
2022-10-26T16:05:17.371Z,16.18
2022-10-26T16:07:47.734Z,15.95
2022-10-26T16:10:18.676Z,15.83
2022-10-26T16:12:45.227Z,15.81
2022-10-26T16:15:17.894Z,15.61
2022-10-26T16:17:44.942Z,15.62
2022-10-26T16:20:22.790Z,15.52
2022-10-26T16:22:51.105Z,15.48
2022-10-26T16:25:20.347Z,15.38
2022-10-26T16:27:47.281Z,15.23
2022-10-26T16:30:14.820Z,15.27
2022-10-26T16:32:42.273Z,15.27
2022-10-26T16:35:10.361Z,15.08
2022-10-26T16:37:37.020Z,15.25
2022-10-26T16:40:04.163Z,15.26
2022-10-26T16:42:31.693Z,15.01
2022-10-26T16:45:02.552Z,14.99
2022-10-26T16:47:32.224Z,15.16
2022-10-26T16:49:58.600Z,14.97
2022-10-26T16:52:24.997Z,15.01
2022-10-26T16:54:51.436Z,15.06
2022-10-26T16:57:17.891Z,14.80
2022-10-26T16:59:44.376Z,14.77
2022-10-26T17:02:14.712Z,14.86
2022-10-26T17:04:41.261Z,14.68
2022-10-26T17:07:10.960Z,14.73
2022-10-26T17:09:38.588Z,14.47
2022-10-26T17:12:05.355Z,14.37
2022-10-26T17:14:32.670Z,14.34
2022-10-26T17:16:59.186Z,14.56
2022-10-26T17:19:25.636Z,14.29
2022-10-26T17:21:54.057Z,14.22
2022-10-26T17:24:20.905Z,14.38
2022-10-26T17:26:47.528Z,14.34
2022-10-26T17:29:14.169Z,14.26
2022-10-26T17:31:41.743Z,14.04
2022-10-26T17:34:08.160Z,14.19
2022-10-26T17:36:34.698Z,14.03
2022-10-26T17:39:01.216Z,13.80
2022-10-26T17:41:28.726Z,13.71
2022-10-26T17:43:56.212Z,13.64
2022-10-26T17:46:25.205Z,13.65
2022-10-26T17:48:56.282Z,13.41
2022-10-26T17:51:23.083Z,13.54
2022-10-26T17:53:50.974Z,13.21
2022-10-26T17:56:20.911Z,13.12
2022-10-26T17:58:55.502Z,13.11
2022-10-26T18:01:22.522Z,12.65
2022-10-26T18:03:50.413Z,12.45
2022-10-26T18:06:17.601Z,12.45
2022-10-26T18:08:45.073Z,12.52
2022-10-26T18:11:15.047Z,12.50
2022-10-26T18:13:41.549Z,12.09
2022-10-26T18:16:16.590Z,12.11
2022-10-26T18:18:50.091Z,11.81
2022-10-26T18:21:19.088Z,11.98
2022-10-26T18:23:46.685Z,11.98
2022-10-26T18:26:16.925Z,12.15
2022-10-26T18:28:43.625Z,12.12
2022-10-26T18:31:16.708Z,11.84
2022-10-26T18:33:43.779Z,11.60
2022-10-26T18:36:13.812Z,11.56
2022-10-26T18:38:40.747Z,11.50
2022-10-26T18:41:10.049Z,11.34
2022-10-26T18:43:44.997Z,11.32
2022-10-26T18:46:15.159Z,11.12
2022-10-26T18:48:44.349Z,11.16
2022-10-26T18:51:14.865Z,11.05
2022-10-26T18:53:42.859Z,10.76
2022-10-26T18:56:17.654Z,10.96
2022-10-26T18:58:55.478Z,10.85
2022-10-26T19:01:24.690Z,10.62
2022-10-26T19:04:12.792Z,10.55
2022-10-26T19:06:44.999Z,10.57
2022-10-26T19:09:11.437Z,10.25
2022-10-26T19:11:38.697Z,10.34
2022-10-26T19:14:05.420Z,10.39
2022-10-26T19:16:45.293Z,10.29
2022-10-26T19:19:14.107Z,10.18
2022-10-26T19:21:40.513Z,10.08
2022-10-26T19:24:11.736Z,9.99
2022-10-26T19:26:42.407Z,9.84
2022-10-26T19:29:14.682Z,9.88
2022-10-26T19:31:42.391Z,9.90
2022-10-26T19:34:11.055Z,9.48
2022-10-26T19:36:38.064Z,9.90
2022-10-26T19:39:04.561Z,9.89
2022-10-26T19:41:31.310Z,9.77
2022-10-26T19:46:30.959Z,9.87
2022-10-26T19:48:59.820Z,9.70
2022-10-26T19:51:28.377Z,9.51
2022-10-26T19:53:59.035Z,9.22
2022-10-26T19:56:28.658Z,9.39
2022-10-26T19:58:58.449Z,9.39
2022-10-26T20:01:25.223Z,9.33
2022-10-26T20:03:52.031Z,9.40
2022-10-26T20:06:24.810Z,9.24
2022-10-26T20:08:51.330Z,9.24
2022-10-26T20:11:18.132Z,9.21
2022-10-26T20:13:46.231Z,9.36
2022-10-26T20:16:14.026Z,9.21
2022-10-26T20:18:44.093Z,8.98
2022-10-26T20:21:14.696Z,9.26
2022-10-26T20:23:41.506Z,9.09
2022-10-26T20:26:08.423Z,9.22
2022-10-26T20:28:34.936Z,9.06
2022-10-26T20:31:01.601Z,8.99
2022-10-26T20:33:28.070Z,9.06
2022-10-26T20:35:58.667Z,8.95
2022-10-26T20:38:26.207Z,9.07
2022-10-26T20:40:57.775Z,9.02
2022-10-26T20:43:28.136Z,9.23
2022-10-26T20:45:56.004Z,9.12
2022-10-26T20:48:22.743Z,8.89
2022-10-26T20:51:04.948Z,9.18
2022-10-26T20:53:34.277Z,8.94
2022-10-26T20:56:04.464Z,8.76
2022-10-26T20:58:44.984Z,8.47
2022-10-26T21:01:29.355Z,8.53
2022-10-26T21:03:57.894Z,8.65
2022-10-26T21:06:25.309Z,8.73
2022-10-26T21:08:53.080Z,8.65
2022-10-26T21:11:20.800Z,8.58
2022-10-26T21:13:48.825Z,8.59
2022-10-26T21:16:16.600Z,8.64
2022-10-26T21:18:43.376Z,8.65
2022-10-26T21:21:10.201Z,8.61
2022-10-26T21:23:39.685Z,8.60
2022-10-26T21:26:07.705Z,8.51
2022-10-26T21:28:36.569Z,8.43
2022-10-26T21:31:04.729Z,8.37
2022-10-26T21:33:34.515Z,8.45
2022-10-26T21:36:02.458Z,8.35
2022-10-26T21:38:30.024Z,8.24
2022-10-26T21:41:10.871Z,8.15
2022-10-26T21:43:38.537Z,8.10
2022-10-26T21:46:06.234Z,8.00
2022-10-26T21:48:33.848Z,8.05
2022-10-26T21:51:06.606Z,7.90
2022-10-26T21:53:33.199Z,7.74
2022-10-26T21:56:01.496Z,7.75
2022-10-26T21:58:29.139Z,7.65
2022-10-26T22:00:55.676Z,7.68
2022-10-26T22:03:22.087Z,7.63
2022-10-26T22:05:52.223Z,7.76
2022-10-26T22:08:21.763Z,7.49
2022-10-26T22:10:48.202Z,7.62
2022-10-26T22:13:14.735Z,7.42
2022-10-26T22:15:41.242Z,7.58
2022-10-26T22:18:07.672Z,7.50
2022-10-26T22:20:34.058Z,7.54
2022-10-26T22:23:00.562Z,7.44
2022-10-26T22:25:26.985Z,7.42
2022-10-26T22:27:53.514Z,7.37
2022-10-26T22:30:20.050Z,7.22
2022-10-26T22:32:46.444Z,7.29
2022-10-26T22:35:28.441Z,7.25
2022-10-26T22:37:56.010Z,7.41
2022-10-26T22:40:22.387Z,7.32
2022-10-26T22:42:51.887Z,7.41
2022-10-26T22:45:18.902Z,7.28
2022-10-26T22:47:45.315Z,7.23
2022-10-26T22:50:11.701Z,7.50
2022-10-26T22:52:38.084Z,7.40
2022-10-26T22:55:04.667Z,7.03
2022-10-26T22:57:31.049Z,7.20
2022-10-26T22:59:57.439Z,7.11
2022-10-26T23:02:23.860Z,7.21
2022-10-26T23:04:50.330Z,7.26
2022-10-26T23:07:16.761Z,7.17
2022-10-26T23:09:43.140Z,7.15
2022-10-26T23:12:09.560Z,7.13
2022-10-26T23:14:35.927Z,7.28
2022-10-26T23:17:03.803Z,7.09
2022-10-26T23:19:30.184Z,6.94
2022-10-26T23:21:56.579Z,6.94
2022-10-26T23:24:23.053Z,6.85
2022-10-26T23:26:49.444Z,6.89
2022-10-26T23:29:16.381Z,6.89
2022-10-26T23:31:42.797Z,6.83
2022-10-26T23:34:09.218Z,6.74
2022-10-26T23:36:35.626Z,6.78
2022-10-26T23:39:02.028Z,6.70
2022-10-26T23:41:28.937Z,6.76
2022-10-26T23:43:55.335Z,6.78
2022-10-26T23:46:21.783Z,6.81
2022-10-26T23:48:48.215Z,6.72
2022-10-26T23:51:14.656Z,6.71
2022-10-26T23:53:41.057Z,6.48
2022-10-26T23:56:07.816Z,6.55
2022-10-26T23:58:35.384Z,6.44
